Airfield :
LOGIN :

Register | Disclaimer

   EN    FR    IT 

 










Legend :    VFR   Marginal VFR   IFR   Intensive IFR   Very Intensive IFR
Visi :
Ceiling :
>= 8 km
>= 3000ft
5 to 8 km
1000 to 3000 ft
1500m to 5 km
500 to 1000 ft
800 to 1500m
200 to 500 ft
< 800m
< 200 ft
Symbols :   Thunderstorms  Fog  Heavy snow  Heavy precipitations  Wind > 20 kt
SIGMETs :     Misc.  Thunderstorms  Icing  Turbulence  Mountain Waves  Volcanic Ashes







- Airport Elevation : 20 ft
- IATA code : LSI
- Download approach charts


EGPB - Sumburgh

CURRENT METAR :
  • 251350Z 16015KT 6000 FEW002 BKN004 10/08 Q1003 NOSIG

EXPIRED METARs :
  • 251320Z 16018KT 6000 FEW004 BKN005 11/09 Q1003
  • 251250Z 16017KT 5000 BR FEW004 SCT005 11/09 Q1002 TEMPO 2000 BR
  • 251220Z 16018KT 5000 BR FEW004 SCT005 11/09 Q1002
  • 251150Z 15018KT 5000 BR SCT006 11/09 Q1002 TEMPO 2000 BR BKN004
  • 251120Z 15018KT 5000 BR FEW003 SCT006 10/09 Q1001

TAF AMD TAF EGPB
Valid from the 25 at 12:00 until the 25 at 21:00 UTC


251230Z 2512/2521 13017KT 6000 SCT005
BECMG 2512/2514 OVC005
TEMPO 2512/2518 2000 BR OVC004
PROB40
TEMPO 2512/2521 0900 FG OVC001
No reported NOTAMs for that airfield.



MET'MAP, your aeronautical weather chart ! - Copyright ORBIFLY December 2007 - Disclaimer

ORBIFLY MET'MAP TEAM :

Programming & Development : Alexandra Zaïnal
Concept & Development : Baudouin d'Aumeries
Co-Development & Prog : Marc-Olivier Méhu
Technical & hardware support : Manuel Goepfert

Contact : metmap@orbifly.com




SOURCES & CREDITS :

   NOAA